GMTT/TNG METAR and TAF weather

Enter ICAO airport designator
Station Type Date Time Source
GMTT METAR 2019/06/18 13:30 UTC NOAA

GMTT 181330Z 29010KT 250V340 9999 FEW016 23/12 Q1017 NOSIG


Station Type Date Time Source
GMTT Decoded METAR 2019/06/18 13:30 UTC NOAA

Tanger Aerodrome , Morocco (GMTT) 35-44N 005-54W 21M
Jun 18, 2019 - 09:30 AM EDT / 2019.06.18 1330 UTC
Wind: from the WNW (290 degrees) at 12 MPH (10 KT) (direction variable):0
Visibility: greater than 7 mile(s):0
Sky conditions: mostly clear
Temperature: 73 F (23 C)
Dew Point: 53 F (12 C)
Relative Humidity: 49%
Pressure (altimeter): 30.03 in. Hg (1017 hPa)
ob: GMTT 181330Z 29010KT 250V340 9999 FEW016 23/12 Q1017 NOSIG
cycle: 13

Station Type Date Time Source
GMTT TAF 2019/06/18 12:28 UTC NOAA

TAF GMTT 181100Z 1812/1918 25010KT 9999 SCT016
BECMG 1823/1901 20004KT
BECMG 1908/1910 27015KT

Example: see airport list